Time;durP1;ratioP1;P1;durP2;ratioP2;P2;SDS_P1;SDS_P2;PMS_P1;PMS_P2;Temp;Humidity;BMP_temperature;BMP_pressure;BME280_temperature;BME280_humidity;BME280_pressure;Samples;Min_cycle;Max_cycle;Signal;HPM_P1;HPM_P2
2023/01/10 00:01:37;;;;;;;0.50;0.50;;;12.60;99.90;;;12.43;55.16;100787.06;4838557;28;99249;-59
2023/01/10 00:04:03;;;;;;;1.80;0.77;;;12.60;99.90;;;12.46;55.85;100802.84;4847234;28;98407;-60
2023/01/10 00:06:29;;;;;;;0.57;0.57;;;12.50;99.90;;;12.55;56.90;100813.03;4844087;28;100190;-61
2023/01/10 00:08:56;;;;;;;0.70;0.50;;;12.60;99.90;;;12.49;54.49;100815.94;4844758;28;98764;-60
2023/01/10 00:14:07;;;;;;;1.07;0.80;;;12.50;99.90;;;12.17;54.98;100831.31;4839412;28;97573;-60
2023/01/10 00:16:33;;;;;;;1.37;0.50;;;12.30;99.90;;;11.92;54.83;100838.47;4845993;28;97814;-59
2023/01/10 00:18:59;;;;;;;1.40;0.53;;;12.10;99.90;;;11.86;55.31;100838.69;4842587;28;101197;-60
2023/01/10 00:21:27;;;;;;;0.70;0.30;;;12.10;99.90;;;11.66;55.47;100851.78;4843780;28;114408;-58
2023/01/10 00:23:53;;;;;;;3.10;0.60;;;12.00;99.90;;;11.66;55.25;100859.69;4838723;28;97943;-60
2023/01/10 00:26:19;;;;;;;0.40;0.40;;;12.00;99.90;;;11.51;55.55;100869.03;4845997;28;97536;-58
2023/01/10 00:28:45;;;;;;;0.60;0.37;;;11.90;99.90;;;11.28;55.86;100867.22;4840983;28;111373;-54
2023/01/10 00:31:12;;;;;;;1.47;0.57;;;11.70;99.90;;;11.17;55.94;100870.25;4850873;28;98422;-55
2023/01/10 00:33:38;;;;;;;1.03;0.50;;;11.60;99.90;;;11.01;56.59;100890.16;4839982;28;97597;-58
2023/01/10 00:36:06;;;;;;;0.80;0.53;;;11.40;99.90;;;11.13;60.40;100883.59;4845866;28;97722;-58
2023/01/10 00:38:35;;;;;;;0.70;0.50;;;11.50;99.90;;;11.05;56.25;100901.47;4838802;28;97753;-60
2023/01/10 00:41:02;;;;;;;4.40;0.73;;;11.50;99.90;;;11.05;56.43;100904.13;4852975;28;99839;-60
2023/01/10 00:46:12;;;;;;;0.53;0.43;;;11.40;99.90;;;11.08;56.37;100901.38;4843862;28;97663;-60
2023/01/10 00:48:39;;;;;;;1.07;0.30;;;11.50;99.90;;;10.94;56.45;100909.75;4839051;28;101468;-54
2023/01/10 00:51:05;;;;;;;1.20;0.43;;;11.40;99.90;;;11.09;58.25;100918.94;4843036;28;100032;-60
2023/01/10 00:53:31;;;;;;;0.20;0.20;;;11.50;99.90;;;11.13;55.76;100923.19;4838769;28;97575;-59
2023/01/10 00:55:57;;;;;;;2.43;0.93;;;11.50;99.90;;;11.26;55.50;100928.00;4845580;28;97633;-57
2023/01/10 00:58:23;;;;;;;3.30;0.73;;;11.60;99.90;;;11.13;55.26;100936.38;4859634;28;98081;-58
2023/01/10 01:00:49;;;;;;;0.70;0.30;;;11.50;99.90;;;11.09;56.37;100940.06;4886039;28;97347;-57
2023/01/10 01:03:18;;;;;;;3.10;0.30;;;11.50;99.90;;;11.12;56.07;100947.88;4891447;28;97224;-58
2023/01/10 01:05:45;;;;;;;5.60;0.73;;;11.50;99.90;;;10.98;55.97;100954.47;4881583;28;97226;-57
2023/01/10 01:08:13;;;;;;;1.50;0.33;;;11.40;99.90;;;11.08;56.49;100956.81;4887665;28;100813;-58
2023/01/10 01:10:39;;;;;;;0.47;0.20;;;11.50;99.90;;;11.13;58.90;100955.72;4880141;28;98394;-57
2023/01/10 01:13:13;;;;;;;0.63;0.43;;;11.50;99.90;;;11.28;58.14;100959.63;4889251;28;97925;-56
2023/01/10 01:15:39;;;;;;;1.83;0.50;;;11.60;99.90;;;11.55;59.49;100961.34;4889964;28;97234;-58
2023/01/10 01:18:06;;;;;;;1.10;0.47;;;11.90;99.90;;;11.51;55.39;100965.00;4882600;28;97802;-58
2023/01/10 01:20:32;;;;;;;7.63;0.60;;;11.80;99.90;;;11.54;55.95;100967.53;4883910;28;98203;-58
2023/01/10 01:22:59;;;;;;;1.90;0.60;;;11.90;99.90;;;11.57;54.00;100972.75;4891872;28;97193;-59
2023/01/10 01:25:26;;;;;;;0.43;0.10;;;11.90;99.90;;;11.73;54.58;100983.63;4881483;28;97544;-56
2023/01/10 01:27:51;;;;;;;0.30;0.20;;;12.00;99.90;;;11.92;57.04;100986.50;4886868;28;106410;-58
2023/01/10 01:30:17;;;;;;;3.93;0.63;;;12.10;99.90;;;11.83;53.97;100986.84;4889993;28;113054;-56
2023/01/10 01:32:43;;;;;;;1.10;0.20;;;12.10;99.90;;;11.95;53.45;100996.09;4888215;28;98008;-58
2023/01/10 01:35:13;;;;;;;3.43;0.47;;;12.20;99.90;;;12.11;54.70;101003.44;4883184;28;97655;-57
2023/01/10 01:37:41;;;;;;;0.50;0.30;;;12.40;99.90;;;12.21;55.55;101014.53;4883494;28;98176;-59
2023/01/10 01:40:18;;;;;;;1.37;0.67;;;12.40;99.90;;;12.20;55.22;101010.19;4891939;28;97566;-60
2023/01/10 01:42:44;;;;;;;1.17;0.40;;;12.40;99.90;;;12.13;52.98;101022.75;4883465;28;99241;-54
2023/01/10 01:45:13;;;;;;;0.10;0.10;;;12.40;99.90;;;12.18;54.06;101020.81;4890384;28;96913;-57
2023/01/10 01:48:06;;;;;;;0.37;0.33;;;12.30;99.90;;;12.18;55.92;101028.75;4882764;28;98295;-60
2023/01/10 01:50:47;;;;;;;0.50;0.33;;;12.40;99.90;;;12.25;52.38;101020.56;4876394;28;101284;-58
2023/01/10 01:53:27;;;;;;;0.30;0.30;;;12.50;99.90;;;12.23;53.33;101033.84;4895068;28;97542;-57
2023/01/10 01:56:00;;;;;;;0.70;0.40;;;12.40;99.90;;;12.15;52.45;101036.81;4889337;28;98662;-58
2023/01/10 01:58:40;;;;;;;0.47;0.33;;;12.40;99.90;;;12.23;52.80;101056.81;4890425;28;98096;-57
2023/01/10 02:01:06;;;;;;;0.50;0.30;;;12.50;99.90;;;12.24;54.35;101046.16;4885525;28;100443;-58
2023/01/10 02:03:33;;;;;;;0.83;0.50;;;12.50;99.90;;;12.23;52.41;101054.16;4899354;28;97424;-54
2023/01/10 02:05:59;;;;;;;1.73;0.90;;;12.40;99.90;;;12.15;51.55;101047.38;4888660;28;97474;-57
2023/01/10 02:08:24;;;;;;;1.20;0.53;;;12.40;99.90;;;12.24;54.54;101050.59;4894398;28;109990;-55
2023/01/10 02:11:07;;;;;;;5.20;0.80;;;12.50;99.90;;;12.18;54.69;101046.41;4870917;28;118891;-58
2023/01/10 02:13:37;;;;;;;2.50;0.70;;;12.40;99.90;;;12.17;56.78;101060.53;4883075;28;97433;-57
2023/01/10 02:16:04;;;;;;;1.77;0.40;;;12.40;99.90;;;12.12;52.51;101058.03;4886310;28;97323;-56
2023/01/10 02:18:30;;;;;;;3.63;0.57;;;12.40;99.90;;;12.17;53.01;101056.13;4888246;28;98302;-59
2023/01/10 02:21:30;;;;;;;2.93;0.60;;;12.40;99.90;;;12.00;52.11;101061.09;4883292;28;105538;-59
2023/01/10 02:24:34;;;;;;;1.73;0.50;;;12.30;99.90;;;12.17;56.72;101058.75;4880235;28;98446;-57
2023/01/10 02:27:19;;;;;;;2.10;0.47;;;12.30;99.90;;;12.14;54.74;101055.34;4897940;28;97493;-54
2023/01/10 02:29:51;;;;;;;0.97;0.40;;;12.40;99.90;;;12.17;52.99;101066.69;4888521;28;97342;-58
2023/01/10 02:32:24;;;;;;;0.50;0.50;;;12.50;99.90;;;11.96;51.44;101072.72;4891111;28;97388;-58
2023/01/10 02:35:19;;;;;;;2.20;0.37;;;12.40;99.90;;;11.83;52.68;101079.34;4886469;28;97351;-54
2023/01/10 02:38:26;;;;;;;1.80;0.27;;;12.10;99.90;;;11.72;52.47;101089.41;4885423;28;97256;-57
2023/01/10 02:41:20;;;;;;;1.27;0.37;;;12.10;99.90;;;11.74;53.68;101082.28;4895608;28;104234;-57
2023/01/10 02:44:17;;;;;;;0.53;0.27;;;12.00;99.90;;;11.73;55.16;101085.84;4881208;28;98674;-57
2023/01/10 02:46:45;;;;;;;1.93;0.40;;;11.90;99.90;;;11.77;55.09;101085.69;4885280;28;97475;-57
2023/01/10 02:49:11;;;;;;;0.90;0.50;;;12.10;99.90;;;11.96;56.84;101088.59;4887221;28;97092;-57
2023/01/10 02:51:36;;;;;;;1.13;0.30;;;12.20;99.90;;;12.02;54.53;101083.09;4887520;28;99279;-56
2023/01/10 02:54:21;;;;;;;1.00;0.47;;;12.30;99.90;;;12.04;55.76;101081.25;4893131;28;98827;-59
2023/01/10 02:57:01;;;;;;;0.83;0.37;;;12.30;99.90;;;12.23;52.29;101091.19;4886598;28;97909;-59
2023/01/10 02:59:35;;;;;;;1.60;0.50;;;12.50;99.90;;;12.20;53.57;101093.03;4886048;28;102575;-61
2023/01/10 03:02:20;;;;;;;1.20;0.40;;;12.40;99.90;;;12.23;56.41;101092.03;4889329;28;101666;-58
2023/01/10 03:05:34;;;;;;;0.50;0.17;;;12.30;99.90;;;12.27;51.65;101092.78;4882950;28;98068;-59
2023/01/10 03:08:14;;;;;;;1.17;0.50;;;12.40;99.90;;;12.10;51.09;101093.41;4869617;28;96850;-60
2023/01/10 03:11:03;;;;;;;4.03;0.53;;;12.10;99.90;;;12.03;51.96;101107.75;4886268;28;97156;-57
2023/01/10 03:13:44;;;;;;;1.33;0.40;;;12.10;99.90;;;12.04;56.90;101101.56;4889649;28;97600;-59
2023/01/10 03:16:17;;;;;;;3.93;0.67;;;12.00;99.90;;;11.82;52.31;101104.06;4893850;28;97407;-59
2023/01/10 03:18:55;;;;;;;1.73;0.60;;;11.80;99.90;;;11.67;52.45;101117.75;4887272;28;97775;-57
2023/01/10 03:21:25;;;;;;;0.57;0.33;;;11.50;99.90;;;11.60;52.50;101120.59;4891222;28;97264;-59
2023/01/10 03:23:56;;;;;;;1.80;0.30;;;11.50;99.90;;;11.59;52.90;101124.16;4892540;28;97749;-54
2023/01/10 03:26:30;;;;;;;1.87;0.67;;;11.40;99.90;;;11.44;52.95;101129.94;4895744;28;98181;-59
2023/01/10 03:29:04;;;;;;;2.03;0.30;;;11.40;99.90;;;11.40;52.91;101130.06;4890380;28;97558;-59
2023/01/10 03:31:49;;;;;;;0.90;0.50;;;11.30;99.90;;;11.35;55.77;101137.28;4881437;28;97142;-58
2023/01/10 03:34:16;;;;;;;1.53;0.37;;;11.20;99.90;;;11.20;53.61;101141.25;4890168;28;97587;-60
2023/01/10 03:36:59;;;;;;;1.50;0.40;;;11.10;99.90;;;11.10;54.82;101140.66;4884388;28;97464;-58
2023/01/10 03:40:27;;;;;;;0.60;0.33;;;10.90;99.90;;;11.15;53.76;101144.03;4884964;28;97243;-58
2023/01/10 03:45:58;;;;;;;1.70;0.50;;;10.90;99.90;;;10.94;54.07;101140.25;4895002;28;103590;-56
2023/01/10 03:48:30;;;;;;;0.70;0.30;;;10.80;99.90;;;10.82;53.94;101147.66;4897217;28;97575;-60
2023/01/10 03:50:58;;;;;;;0.97;0.23;;;10.70;99.90;;;11.00;57.51;101148.00;4887102;28;97667;-60
2023/01/10 03:53:24;;;;;;;1.43;0.97;;;10.80;99.90;;;10.96;53.61;101156.03;4897846;28;101560;-55
2023/01/10 03:55:49;;;;;;;2.47;0.30;;;10.90;99.90;;;10.89;53.79;101165.06;4889539;28;119588;-56
2023/01/10 03:58:18;;;;;;;0.77;0.50;;;10.80;99.90;;;10.94;54.58;101173.69;4896775;28;97080;-58
2023/01/10 04:00:44;;;;;;;1.50;0.33;;;10.80;99.90;;;10.84;54.80;101177.50;4883539;28;97086;-55
2023/01/10 04:03:10;;;;;;;2.70;0.80;;;10.70;99.90;;;11.03;58.34;101170.81;4893257;28;119093;-58
2023/01/10 04:05:35;;;;;;;2.63;0.53;;;10.90;99.90;;;10.89;53.59;101173.84;4882698;28;97840;-57
2023/01/10 04:08:01;;;;;;;6.80;0.73;;;10.80;99.90;;;10.72;53.73;101184.88;4892442;28;101501;-59
2023/01/10 04:10:28;;;;;;;1.97;0.87;;;10.60;99.90;;;10.62;55.07;101188.66;4891152;28;102426;-61
2023/01/10 04:12:58;;;;;;;2.80;0.73;;;10.50;99.90;;;10.49;54.77;101191.69;4884657;28;101159;-58
2023/01/10 04:15:24;;;;;;;2.90;0.33;;;10.40;99.90;;;10.38;54.96;101206.00;4909812;28;101010;-60
2023/01/10 04:17:50;;;;;;;3.93;0.30;;;10.20;99.90;;;10.34;55.17;101214.03;4882374;28;98253;-58
2023/01/10 04:20:16;;;;;;;0.73;0.20;;;10.20;99.90;;;10.38;55.32;101215.69;4893675;28;97478;-58
2023/01/10 04:22:44;;;;;;;0.30;0.20;;;10.20;99.90;;;10.31;55.27;101215.00;4886275;28;98979;-55
2023/01/10 04:25:09;;;;;;;2.73;0.40;;;10.20;99.90;;;10.23;55.84;101216.94;4891146;28;100092;-60
2023/01/10 04:27:35;;;;;;;0.43;0.30;;;10.10;99.90;;;10.19;56.11;101210.00;4883415;28;124505;-60
2023/01/10 04:30:01;;;;;;;2.53;0.40;;;10.10;99.90;;;10.14;55.72;101217.16;4891458;28;97618;-57
2023/01/10 04:32:27;;;;;;;0.50;0.30;;;10.00;99.90;;;10.10;56.05;101215.47;4890750;28;97139;-61
2023/01/10 04:34:53;;;;;;;7.23;0.67;;;10.00;99.90;;;10.04;56.71;101215.66;4892598;28;106727;-58
2023/01/10 04:37:19;;;;;;;1.03;0.53;;;10.00;99.90;;;10.04;56.60;101219.16;4898141;28;107383;-58
2023/01/10 04:39:44;;;;;;;0.77;0.50;;;9.90;99.90;;;10.01;56.60;101221.88;4879398;28;99969;-56
2023/01/10 04:42:10;;;;;;;0.90;0.60;;;9.90;99.90;;;10.00;57.01;101222.78;4882107;28;97336;-55
2023/01/10 04:44:36;;;;;;;0.33;0.33;;;9.90;99.90;;;10.09;58.85;101219.03;4881459;28;106975;-58
2023/01/10 04:47:02;;;;;;;3.57;0.60;;;10.00;99.90;;;10.03;56.67;101220.06;4893817;28;97563;-59
2023/01/10 04:49:28;;;;;;;5.20;0.53;;;10.00;99.90;;;10.15;61.35;101224.16;4888420;28;97285;-59
2023/01/10 04:51:53;;;;;;;2.53;0.70;;;10.00;99.90;;;10.24;56.27;101223.94;4885126;28;102830;-55
2023/01/10 04:54:21;;;;;;;3.90;0.80;;;10.20;99.90;;;10.22;55.94;101223.13;4890453;28;113135;-56
2023/01/10 04:56:47;;;;;;;1.03;0.60;;;10.20;99.90;;;10.19;55.91;101231.09;4880660;28;98354;-58
2023/01/10 04:59:13;;;;;;;2.13;0.60;;;10.10;99.90;;;10.14;55.91;101232.97;4894153;28;97337;-60
2023/01/10 05:01:39;;;;;;;2.13;0.70;;;10.10;99.90;;;10.13;55.91;101232.13;4896292;28;97335;-60
2023/01/10 05:04:06;;;;;;;0.63;0.33;;;10.10;99.90;;;10.24;56.01;101229.22;4892368;28;97567;-57
2023/01/10 05:06:32;;;;;;;0.60;0.30;;;10.20;99.90;;;10.26;57.45;101232.69;4884264;28;100263;-57
2023/01/10 05:08:58;;;;;;;0.33;0.33;;;10.20;99.90;;;10.38;56.50;101240.28;4898345;28;97386;-57
2023/01/10 05:11:24;;;;;;;1.40;0.40;;;10.30;99.90;;;10.43;55.37;101248.97;4883962;28;102509;-59
2023/01/10 05:13:50;;;;;;;0.87;0.40;;;10.40;99.90;;;10.46;55.44;101248.03;4886972;28;99033;-58
2023/01/10 05:16:16;;;;;;;7.17;0.50;;;10.40;99.90;;;10.55;54.96;101254.81;4883121;28;97699;-58
2023/01/10 05:18:43;;;;;;;1.47;0.33;;;10.50;99.90;;;10.72;54.70;101257.91;4876018;28;103534;-60
2023/01/10 05:21:12;;;;;;;8.77;1.67;;;10.70;99.90;;;10.63;54.58;101258.13;4889691;28;97065;-58
2023/01/10 05:23:38;;;;;;;4.20;0.77;;;10.60;99.90;;;10.74;55.20;101266.63;4890957;28;97759;-54
2023/01/10 05:26:11;;;;;;;3.60;0.67;;;10.70;99.90;;;10.61;54.46;101270.50;4884420;28;98093;-59
2023/01/10 05:28:39;;;;;;;1.90;0.73;;;10.60;99.90;;;10.54;55.48;101261.84;4881103;28;104791;-58
2023/01/10 05:31:11;;;;;;;2.90;0.50;;;10.50;99.90;;;10.70;55.55;101272.88;4887064;28;97201;-55
2023/01/10 05:33:37;;;;;;;11.33;0.70;;;10.60;99.90;;;10.77;54.91;101266.53;4879248;28;100022;-60
2023/01/10 05:36:05;;;;;;;2.80;0.50;;;10.80;99.90;;;10.65;54.54;101261.59;4868917;28;98718;-55
2023/01/10 05:38:32;;;;;;;1.33;0.83;;;10.60;99.90;;;10.58;54.48;101265.31;4883038;28;97315;-58
2023/01/10 05:40:59;;;;;;;4.00;0.47;;;10.50;99.90;;;10.45;54.57;101264.75;4895357;28;99436;-58
2023/01/10 05:43:26;;;;;;;1.73;0.30;;;10.40;99.90;;;10.49;54.56;101265.53;4890251;28;98152;-54
2023/01/10 05:45:52;;;;;;;1.03;0.40;;;10.40;99.90;;;10.45;55.18;101277.94;4882706;28;97625;-55
2023/01/10 05:48:18;;;;;;;4.73;0.83;;;10.40;99.90;;;10.35;55.49;101287.84;4887262;28;108421;-56
2023/01/10 05:50:44;;;;;;;1.10;0.53;;;10.30;99.90;;;10.50;59.00;101288.38;4879131;28;97663;-58
2023/01/10 05:53:10;;;;;;;0.63;0.50;;;10.30;99.90;;;10.36;55.34;101296.63;4886213;28;97982;-54
2023/01/10 05:55:36;;;;;;;1.87;0.77;;;10.30;99.90;;;10.35;57.43;101294.88;4881379;28;97599;-58
2023/01/10 05:58:02;;;;;;;0.80;0.47;;;10.20;99.90;;;10.43;54.93;101288.53;4892099;28;103505;-54
2023/01/10 06:00:28;;;;;;;2.17;0.50;;;10.40;99.90;;;10.35;55.23;101285.19;4885104;28;97617;-57
2023/01/10 06:02:55;;;;;;;4.07;0.47;;;10.30;99.90;;;10.29;55.44;101280.09;4891383;28;98550;-56
2023/01/10 06:05:23;;;;;;;3.53;0.50;;;10.20;99.90;;;10.21;55.22;101282.03;4881583;28;97204;-58
2023/01/10 06:07:49;;;;;;;0.60;0.30;;;10.10;99.90;;;10.15;55.54;101295.34;4887448;28;97494;-57
2023/01/10 06:10:16;;;;;;;1.17;0.23;;;10.10;99.90;;;10.08;55.63;101317.47;4887987;28;98157;-53
2023/01/10 06:12:42;;;;;;;1.80;0.67;;;10.00;99.90;;;10.01;55.58;101315.88;4880926;28;97345;-54
2023/01/10 06:15:09;;;;;;;1.60;0.60;;;9.90;99.90;;;9.98;56.16;101323.84;4887149;28;97540;-60
2023/01/10 06:17:35;;;;;;;1.83;0.13;;;9.90;99.90;;;9.96;57.56;101337.06;4884147;28;97345;-54
2023/01/10 06:20:01;;;;;;;0.57;0.20;;;9.80;99.90;;;9.91;56.96;101335.44;4886852;28;100447;-55
2023/01/10 06:22:27;;;;;;;0.77;0.40;;;9.90;99.90;;;10.14;60.43;101338.44;4887082;28;100078;-60
2023/01/10 06:24:54;;;;;;;6.60;0.70;;;10.00;99.90;;;10.25;58.98;101341.69;4887774;28;107511;-60
2023/01/10 06:27:20;;;;;;;7.40;1.10;;;10.10;99.90;;;10.22;55.63;101356.72;4878627;28;97642;-56
2023/01/10 06:29:46;;;;;;;1.23;0.83;;;10.10;99.90;;;10.34;58.04;101352.03;4885802;28;100458;-59
2023/01/10 06:32:12;;;;;;;2.13;0.97;;;10.20;99.90;;;10.46;55.25;101344.75;4882771;28;98833;-60
2023/01/10 06:34:38;;;;;;;2.37;0.73;;;10.30;99.90;;;10.37;56.13;101341.41;4885469;28;97591;-55
2023/01/10 06:37:03;;;;;;;2.17;1.07;;;10.20;99.90;;;10.32;55.16;101356.50;4885929;28;98674;-56
2023/01/10 06:39:29;;;;;;;1.60;0.63;;;10.20;99.90;;;10.22;54.99;101367.28;4888065;28;97076;-57
2023/01/10 06:41:55;;;;;;;1.73;0.40;;;10.10;99.90;;;10.17;55.25;101363.84;4889188;28;105423;-57
2023/01/10 06:44:21;;;;;;;5.50;1.80;;;10.10;99.90;;;10.09;55.69;101362.25;4894344;28;97490;-56
2023/01/10 06:46:46;;;;;;;1.83;0.90;;;10.00;99.90;;;10.16;55.69;101368.25;4881387;28;104214;-55
2023/01/10 06:49:12;;;;;;;4.70;0.97;;;10.00;99.90;;;10.16;56.07;101370.91;4887082;28;97398;-55
2023/01/10 06:51:38;;;;;;;7.00;0.60;;;10.10;99.90;;;10.26;56.82;101372.44;4889724;28;98625;-59
2023/01/10 06:54:04;;;;;;;1.00;0.33;;;10.10;99.90;;;10.27;56.58;101370.66;4885461;28;112535;-58
2023/01/10 06:56:29;;;;;;;4.30;0.57;;;10.10;99.90;;;10.26;55.50;101380.34;4872851;28;106155;-55
2023/01/10 06:58:55;;;;;;;2.90;0.70;;;10.10;99.90;;;10.19;55.44;101378.72;4885063;28;97359;-58
2023/01/10 07:01:21;;;;;;;3.23;0.93;;;10.10;99.90;;;10.18;55.53;101382.28;4874962;28;111826;-59
2023/01/10 07:03:47;;;;;;;1.03;0.30;;;10.10;99.90;;;10.09;54.96;101387.75;4879033;28;118782;-59
2023/01/10 07:06:13;;;;;;;1.77;0.60;;;10.00;99.90;;;10.13;55.73;101394.69;4893042;28;97613;-57
2023/01/10 07:08:43;;;;;;;9.13;0.90;;;10.00;99.90;;;10.11;56.56;101404.38;4883943;28;97023;-59
2023/01/10 07:11:11;;;;;;;3.67;1.23;;;10.00;99.90;;;10.16;55.36;101415.72;4877165;28;97283;-60
2023/01/10 07:13:37;;;;;;;2.27;0.90;;;10.10;99.90;;;10.13;55.80;101414.03;4901861;28;98970;-56
2023/01/10 07:16:05;;;;;;;3.60;0.47;;;10.10;99.90;;;10.11;56.12;101418.44;4878229;28;97701;-58
2023/01/10 07:18:32;;;;;;;8.43;0.60;;;10.00;99.90;;;10.04;55.49;101418.63;4887556;28;97238;-58
2023/01/10 07:20:58;;;;;;;5.70;0.97;;;10.00;99.90;;;10.04;55.90;101415.97;4889854;28;97880;-56
2023/01/10 07:23:24;;;;;;;6.23;0.43;;;9.90;99.90;;;9.90;55.37;101418.03;4892568;28;98371;-57
2023/01/10 07:25:50;;;;;;;5.10;1.30;;;9.80;99.90;;;9.91;56.00;101417.13;4889733;28;97565;-56
2023/01/10 07:28:15;;;;;;;2.67;0.80;;;9.80;99.90;;;9.89;56.63;101421.56;4889710;28;97439;-54
2023/01/10 07:30:41;;;;;;;4.00;0.70;;;9.80;99.90;;;9.91;56.71;101431.19;4881827;28;98361;-56
2023/01/10 07:33:07;;;;;;;2.17;0.87;;;9.80;99.90;;;9.99;57.74;101438.94;4883539;28;99436;-57
2023/01/10 07:35:33;;;;;;;10.23;1.10;;;9.80;99.90;;;9.99;56.26;101452.13;4891001;28;99607;-58
2023/01/10 07:38:00;;;;;;;1.10;0.33;;;9.90;99.90;;;10.02;56.45;101436.25;4889419;28;97070;-55
2023/01/10 07:40:26;;;;;;;1.77;0.53;;;9.90;99.90;;;10.01;56.27;101442.41;4887509;28;97197;-59
2023/01/10 07:43:01;;;;;;;1.23;0.40;;;9.90;99.90;;;10.04;59.23;101443.19;4891628;28;101136;-59
2023/01/10 07:45:28;;;;;;;6.37;1.13;;;9.90;99.90;;;10.00;56.19;101456.50;4891105;28;97085;-56
2023/01/10 07:47:59;;;;;;;3.93;1.00;;;9.90;99.90;;;9.94;56.48;101457.47;4878862;28;97012;-58
2023/01/10 07:50:28;;;;;;;3.33;1.50;;;9.90;99.90;;;9.92;56.13;101448.72;4890535;28;98552;-60
2023/01/10 07:52:54;;;;;;;1.40;0.60;;;9.90;99.90;;;9.94;56.08;101456.59;4882713;28;101747;-60
2023/01/10 07:55:21;;;;;;;0.60;0.50;;;9.90;99.90;;;9.84;55.96;101462.06;4890931;28;97523;-59
2023/01/10 07:57:49;;;;;;;3.27;0.60;;;9.80;99.90;;;9.81;56.25;101467.38;4887411;28;98769;-60
2023/01/10 08:00:16;;;;;;;2.37;0.70;;;9.80;99.90;;;9.75;56.17;101467.50;4883230;28;97771;-60
2023/01/10 08:02:43;;;;;;;6.67;0.97;;;9.80;99.90;;;9.81;56.36;101477.91;4880653;28;99007;-59
2023/01/10 08:05:09;;;;;;;3.13;1.00;;;9.80;99.90;;;9.78;56.41;101477.97;4892552;28;97082;-60
2023/01/10 08:07:35;;;;;;;6.53;0.80;;;9.70;99.90;;;9.77;56.98;101483.28;4889907;28;97555;-59
2023/01/10 08:10:02;;;;;;;6.63;1.43;;;9.70;99.90;;;9.75;58.11;101483.31;4887371;28;100446;-59
2023/01/10 08:12:28;;;;;;;1.17;0.70;;;9.70;99.90;;;9.72;56.49;101486.03;4889328;28;97162;-60
2023/01/10 08:14:54;;;;;;;2.30;0.63;;;9.70;99.90;;;9.73;56.58;101489.53;4888027;28;97453;-60
2023/01/10 08:17:19;;;;;;;1.77;0.77;;;9.70;99.90;;;9.65;56.70;101497.56;4881616;28;104199;-59
2023/01/10 08:19:45;;;;;;;23.47;1.30;;;9.60;99.90;;;9.68;57.12;101496.63;4886191;28;98315;-60
2023/01/10 08:22:11;;;;;;;1.60;0.93;;;9.60;99.90;;;9.70;58.00;101498.34;4887598;28;97323;-59
2023/01/10 08:24:37;;;;;;;2.17;0.77;;;9.60;99.90;;;9.71;56.90;101508.00;4882612;28;104602;-60
2023/01/10 08:27:03;;;;;;;1.70;0.47;;;9.70;99.90;;;9.71;57.73;101513.25;4889948;28;97107;-59
2023/01/10 08:29:29;;;;;;;4.93;1.80;;;9.70;99.90;;;9.72;56.94;101509.72;4884692;28;99423;-60
2023/01/10 08:31:56;;;;;;;1.77;0.87;;;9.70;99.90;;;9.72;56.92;101515.00;4900869;28;97643;-60
2023/01/10 08:34:21;;;;;;;1.30;0.60;;;9.70;99.90;;;9.68;56.85;101512.44;4892453;28;97423;-60
2023/01/10 08:36:52;;;;;;;3.77;0.50;;;9.70;99.90;;;9.71;56.76;101513.25;4889572;28;101175;-59
2023/01/10 08:39:21;;;;;;;13.33;1.00;;;9.70;99.90;;;9.66;56.85;101511.59;4890936;28;98371;-57
2023/01/10 08:41:48;;;;;;;1.47;0.53;;;9.70;99.90;;;9.65;56.88;101513.38;4891136;28;98516;-56
2023/01/10 08:44:14;;;;;;;1.47;0.43;;;9.60;99.90;;;9.64;56.45;101506.34;4886074;28;96895;-58
2023/01/10 08:46:41;;;;;;;5.63;1.07;;;9.60;99.90;;;9.67;57.23;101522.09;4889460;28;98517;-59
2023/01/10 08:49:08;;;;;;;7.40;1.80;;;9.60;99.90;;;9.73;58.37;101513.22;4891856;28;97398;-59
2023/01/10 08:51:34;;;;;;;6.40;1.13;;;9.70;99.90;;;9.71;56.64;101513.25;4887431;28;96893;-57
2023/01/10 08:53:59;;;;;;;6.30;0.97;;;9.70;99.90;;;9.73;56.80;101518.50;4891044;28;97204;-54
2023/01/10 08:56:25;;;;;;;5.43;0.97;;;9.70;99.90;;;9.74;57.37;101528.16;4887517;28;97103;-57
2023/01/10 08:58:51;;;;;;;7.27;0.60;;;9.70;99.90;;;9.80;56.44;101528.88;4885385;28;98490;-59
2023/01/10 09:01:17;;;;;;;2.13;1.07;;;9.80;99.90;;;9.76;56.52;101521.94;4891560;28;100205;-55
2023/01/10 09:03:43;;;;;;;1.77;0.70;;;9.70;99.90;;;9.76;56.49;101519.31;4885686;28;97328;-59
2023/01/10 09:06:10;;;;;;;6.40;0.97;;;9.70;99.90;;;9.62;56.77;101523.97;4894102;28;97408;-58
2023/01/10 09:08:36;;;;;;;6.33;1.07;;;9.60;99.90;;;9.49;57.26;101517.16;4889529;28;97402;-59
2023/01/10 09:11:03;;;;;;;2.40;0.43;;;9.50;99.90;;;9.38;57.52;101525.25;4891403;28;100249;-57
2023/01/10 09:13:30;;;;;;;0.50;0.30;;;9.40;99.90;;;9.32;57.77;101529.75;4884228;28;97289;-58
2023/01/10 09:15:56;;;;;;;1.83;0.80;;;9.30;99.90;;;9.25;58.03;101519.31;4885405;28;97597;-60
2023/01/10 09:18:23;;;;;;;4.87;1.93;;;9.30;99.90;;;9.22;58.02;101527.25;4898846;28;100743;-59
2023/01/10 09:20:50;;;;;;;4.63;0.80;;;9.20;99.90;;;9.18;58.44;101528.22;4893441;28;97429;-57
2023/01/10 09:23:21;;;;;;;3.67;0.90;;;9.20;99.90;;;9.19;58.37;101529.97;4884332;28;97250;-57
2023/01/10 09:25:50;;;;;;;6.50;0.90;;;9.30;99.90;;;9.18;58.54;101522.09;4898274;28;97302;-57
2023/01/10 09:28:17;;;;;;;1.60;0.53;;;9.30;99.90;;;9.19;58.42;101529.97;4890569;28;98206;-52
2023/01/10 09:30:43;;;;;;;4.43;0.50;;;9.30;99.90;;;9.22;58.31;101524.63;4875554;28;98208;-60
2023/01/10 09:33:10;;;;;;;4.47;0.70;;;9.40;99.90;;;9.21;58.05;101528.16;4885800;28;97217;-59
2023/01/10 09:35:39;;;;;;;1.27;0.33;;;9.30;99.90;;;9.20;58.31;101531.69;4881948;28;97262;-59
2023/01/10 09:38:09;;;;;;;1.13;0.40;;;9.30;99.90;;;9.23;58.86;101531.63;4883190;28;100435;-55
2023/01/10 09:41:10;;;;;;;2.77;0.53;;;9.40;99.90;;;9.30;58.68;101537.69;4889616;28;97704;-60
2023/01/10 09:44:13;;;;;;;3.40;0.87;;;9.40;99.90;;;9.34;58.46;101533.22;4882639;28;97274;-59
2023/01/10 09:46:57;;;;;;;0.83;0.30;;;9.40;99.90;;;9.33;58.20;101535.00;4888271;28;98056;-60
2023/01/10 09:49:38;;;;;;;5.03;1.07;;;9.50;99.90;;;9.38;58.27;101541.03;4887613;28;99124;-58
2023/01/10 09:52:11;;;;;;;3.67;1.03;;;9.50;99.90;;;9.43;58.62;101538.34;4888696;28;101275;-54
2023/01/10 09:54:41;;;;;;;8.60;1.00;;;9.50;99.90;;;9.47;58.11;101540.03;4891325;28;97457;-57
2023/01/10 09:57:16;;;;;;;2.70;0.97;;;9.60;99.90;;;9.50;57.85;101542.59;4894334;28;114689;-58
2023/01/10 09:59:42;;;;;;;4.50;0.73;;;9.60;99.90;;;9.54;57.95;101547.78;4886809;28;99244;-55
2023/01/10 10:02:36;;;;;;;7.67;1.07;;;9.70;99.90;;;9.60;57.98;101541.56;4896603;28;97924;-56
2023/01/10 10:05:24;;;;;;;1.83;0.60;;;9.70;99.90;;;9.65;58.34;101549.38;4887519;28;97531;-58
2023/01/10 10:08:01;;;;;;;7.80;0.87;;;9.80;99.90;;;9.74;58.82;101550.09;4891165;28;97820;-57
2023/01/10 10:10:56;;;;;;;4.70;1.03;;;9.80;99.90;;;9.91;57.49;101541.88;4897630;28;97390;-56
2023/01/10 10:14:05;;;;;;;2.73;0.80;;;10.00;99.90;;;10.09;57.09;101535.38;4885582;28;101264;-57
2023/01/10 10:17:01;;;;;;;16.83;1.50;;;10.20;99.90;;;10.27;60.46;101540.31;4896252;28;97654;-59
2023/01/10 10:20:00;;;;;;;5.10;0.90;;;10.30;99.90;;;10.36;56.41;101528.69;4895271;28;97469;-59
2023/01/10 10:23:15;;;;;;;1.30;0.93;;;10.40;99.90;;;10.45;55.49;101527.66;4875556;28;100487;-57
2023/01/10 10:26:22;;;;;;;4.07;1.07;;;10.50;99.90;;;10.53;55.11;101521.28;4883615;28;101183;-55
2023/01/10 10:28:54;;;;;;;7.30;1.50;;;10.60;99.90;;;10.64;55.14;101507.88;4884419;28;96941;-58
2023/01/10 10:31:26;;;;;;;3.83;0.93;;;10.70;99.90;;;10.69;54.84;101519.19;4893169;28;97379;-59
2023/01/10 10:34:24;;;;;;;1.27;0.70;;;10.70;99.90;;;10.65;53.68;101517.53;4894234;28;97428;-57
2023/01/10 10:37:04;;;;;;;3.20;0.80;;;10.70;99.90;;;10.66;54.44;101508.69;4878520;28;98557;-58
2023/01/10 10:39:42;;;;;;;5.73;0.50;;;10.70;99.90;;;10.67;54.25;101513.94;4891055;28;98701;-55